KAL112 RKSS-RKTU
Flight info
| Callsign | KAL112 |
|---|---|
| Flight time | 0h 17m |
| Altitude | 13000 |
| Route | OSPOT2T OSPOT MATIZ1 |
| Aircraft | A20N/M-SDE2E3FGHIRWXY/LB1 |
Departure
| Time | 2026-04-22 03:08 |
|---|---|
| Airport | Gimpo International Airport (RKSS) |
Arrival
| Time | 2026-04-22 03:26 |
|---|---|
| Airport | Cheongju International Airport/Cheongju Air Base (K-59/G-513) (RKTU) |
| Time | Latitude | Longitude | Altitude | Speed | Heading |
|---|---|---|---|---|---|
| 2026-04-22 02:52 | 37.55727 | 126.80390 | 53 ft | 0 kts | 45° |
| 2026-04-22 03:00 | 37.55725 | 126.80389 | 53 ft | 3 kts | 45° |
| 2026-04-22 03:00 | 37.55712 | 126.80368 | 48 ft | 3 kts | 56° |
| 2026-04-22 03:00 | 37.55701 | 126.80346 | 51 ft | 3 kts | 65° |
| 2026-04-22 03:00 | 37.55694 | 126.80273 | 48 ft | 10 kts | 104° |
| 2026-04-22 03:01 | 37.55707 | 126.80235 | 48 ft | 0 kts | 122° |
| 2026-04-22 03:04 | 37.55670 | 126.80260 | 49 ft | 3 kts | 168° |
| 2026-04-22 03:04 | 37.55667 | 126.80260 | 50 ft | 0 kts | 174° |
| 2026-04-22 03:05 | 37.55641 | 126.80268 | 53 ft | 0 kts | 161° |
| 2026-04-22 03:05 | 37.55634 | 126.80266 | 52 ft | 2 kts | 201° |
| 2026-04-22 03:05 | 37.55577 | 126.80192 | 51 ft | 23 kts | 226° |
| 2026-04-22 03:05 | 37.55476 | 126.80138 | 53 ft | 12 kts | 148° |
| 2026-04-22 03:06 | 37.55410 | 126.80222 | 52 ft | 15 kts | 137° |
| 2026-04-22 03:06 | 37.55325 | 126.80320 | 49 ft | 18 kts | 137° |
| 2026-04-22 03:06 | 37.55234 | 126.80434 | 52 ft | 20 kts | 129° |
| 2026-04-22 03:06 | 37.55133 | 126.80560 | 51 ft | 22 kts | 136° |
| 2026-04-22 03:07 | 37.55015 | 126.80701 | 51 ft | 25 kts | 133° |
| 2026-04-22 03:07 | 37.54932 | 126.80803 | 53 ft | 9 kts | 147° |
| 2026-04-22 03:07 | 37.54859 | 126.80793 | 51 ft | 16 kts | 214° |
| 2026-04-22 03:07 | 37.54819 | 126.80651 | 52 ft | 18 kts | 308° |
| 2026-04-22 03:08 | 37.54835 | 126.80629 | 52 ft | 5 kts | 312° |
| 2026-04-22 03:08 | 37.55068 | 126.80330 | 56 ft | 96 kts | 314° |
| 2026-04-22 03:08 | 37.55723 | 126.79501 | 168 ft | 158 kts | 314° |
| 2026-04-22 03:08 | 37.56531 | 126.78514 | 1047 ft | 165 kts | 313° |
| 2026-04-22 03:09 | 37.57384 | 126.77472 | 2031 ft | 179 kts | 313° |
| 2026-04-22 03:09 | 37.58293 | 126.76353 | 2937 ft | 191 kts | 313° |
| 2026-04-22 03:09 | 37.59285 | 126.75122 | 3690 ft | 207 kts | 311° |
| 2026-04-22 03:09 | 37.60307 | 126.73704 | 4482 ft | 228 kts | 310° |
| 2026-04-22 03:10 | 37.61403 | 126.72157 | 5224 ft | 249 kts | 307° |
| 2026-04-22 03:10 | 37.62150 | 126.70185 | 6242 ft | 252 kts | 281° |
| 2026-04-22 03:10 | 37.62073 | 126.67966 | 7283 ft | 261 kts | 255° |
| 2026-04-22 03:10 | 37.61174 | 126.65936 | 8259 ft | 272 kts | 232° |
| 2026-04-22 03:11 | 37.59882 | 126.64144 | 9211 ft | 282 kts | 228° |
| 2026-04-22 03:11 | 37.58488 | 126.62336 | 10125 ft | 291 kts | 227° |
| 2026-04-22 03:11 | 37.56868 | 126.60689 | 10730 ft | 313 kts | 209° |
| 2026-04-22 03:11 | 37.54709 | 126.59854 | 11164 ft | 339 kts | 187° |
| 2026-04-22 03:12 | 37.52324 | 126.60136 | 11864 ft | 351 kts | 163° |
| 2026-04-22 03:12 | 37.48421 | 126.63765 | 13658 ft | 364 kts | 129° |
| 2026-04-22 03:12 | 37.46833 | 126.66291 | 14412 ft | 371 kts | 130° |
| 2026-04-22 03:13 | 37.45118 | 126.68768 | 15099 ft | 379 kts | 135° |
| 2026-04-22 03:13 | 37.43239 | 126.71138 | 15808 ft | 385 kts | 139° |
| 2026-04-22 03:13 | 37.41239 | 126.73439 | 16527 ft | 391 kts | 141° |
| 2026-04-22 03:13 | 37.39172 | 126.75708 | 17225 ft | 398 kts | 143° |
| 2026-04-22 03:14 | 37.37054 | 126.77995 | 17903 ft | 405 kts | 144° |
| 2026-04-22 03:14 | 37.34890 | 126.80319 | 18482 ft | 413 kts | 144° |
| 2026-04-22 03:14 | 37.32705 | 126.82670 | 18577 ft | 412 kts | 144° |
| 2026-04-22 03:14 | 37.30555 | 126.84985 | 18683 ft | 412 kts | 144° |
| 2026-04-22 03:15 | 37.28368 | 126.87338 | 18780 ft | 413 kts | 144° |
| 2026-04-22 03:15 | 37.26182 | 126.89689 | 18868 ft | 414 kts | 144° |
| 2026-04-22 03:15 | 37.23991 | 126.92046 | 18960 ft | 414 kts | 145° |
| 2026-04-22 03:15 | 37.21794 | 126.94402 | 18972 ft | 414 kts | 145° |
| 2026-04-22 03:16 | 37.19630 | 126.96720 | 18969 ft | 415 kts | 145° |
| 2026-04-22 03:16 | 37.17595 | 126.99301 | 18966 ft | 422 kts | 131° |
| 2026-04-22 03:16 | 37.16147 | 127.02538 | 18972 ft | 428 kts | 116° |
| 2026-04-22 03:16 | 37.15003 | 127.05989 | 18968 ft | 429 kts | 115° |
| 2026-04-22 03:17 | 37.13889 | 127.09466 | 18970 ft | 430 kts | 115° |
| 2026-04-22 03:17 | 37.12772 | 127.12938 | 18969 ft | 429 kts | 115° |
| 2026-04-22 03:17 | 37.11644 | 127.16408 | 18971 ft | 430 kts | 115° |
| 2026-04-22 03:17 | 37.10511 | 127.19864 | 18878 ft | 427 kts | 115° |
| 2026-04-22 03:18 | 37.09383 | 127.23281 | 18516 ft | 424 kts | 115° |
| 2026-04-22 03:18 | 37.08253 | 127.26691 | 17958 ft | 421 kts | 115° |
| 2026-04-22 03:18 | 37.07139 | 127.30041 | 17489 ft | 414 kts | 115° |
| 2026-04-22 03:18 | 37.06055 | 127.33304 | 17001 ft | 408 kts | 115° |
| 2026-04-22 03:19 | 37.04969 | 127.36565 | 16493 ft | 402 kts | 115° |
| 2026-04-22 03:19 | 37.03899 | 127.39768 | 16035 ft | 396 kts | 115° |
| 2026-04-22 03:19 | 37.02845 | 127.42931 | 15549 ft | 390 kts | 114° |
| 2026-04-22 03:19 | 37.01803 | 127.46053 | 15093 ft | 384 kts | 114° |
| 2026-04-22 03:20 | 37.00780 | 127.49118 | 14545 ft | 381 kts | 114° |
| 2026-04-22 03:20 | 36.99768 | 127.52143 | 13999 ft | 379 kts | 114° |
| 2026-04-22 03:20 | 36.98755 | 127.55170 | 13516 ft | 374 kts | 114° |
| 2026-04-22 03:20 | 36.97759 | 127.58147 | 13044 ft | 368 kts | 114° |
| 2026-04-22 03:21 | 36.96661 | 127.61006 | 12556 ft | 361 kts | 123° |
| 2026-04-22 03:21 | 36.95135 | 127.63452 | 12085 ft | 354 kts | 136° |
| 2026-04-22 03:21 | 36.93257 | 127.65411 | 11599 ft | 348 kts | 144° |
| 2026-04-22 03:21 | 36.91334 | 127.67223 | 11120 ft | 343 kts | 143° |
| 2026-04-22 03:22 | 36.89389 | 127.68858 | 10573 ft | 341 kts | 155° |
| 2026-04-22 03:22 | 36.87120 | 127.69582 | 10135 ft | 336 kts | 177° |
| 2026-04-22 03:22 | 36.84831 | 127.69172 | 9613 ft | 333 kts | 201° |
| 2026-04-22 03:22 | 36.82898 | 127.67623 | 9131 ft | 328 kts | 223° |
| 2026-04-22 03:23 | 36.81374 | 127.65527 | 8575 ft | 325 kts | 231° |
| 2026-04-22 03:23 | 36.80059 | 127.63298 | 7968 ft | 316 kts | 235° |
| 2026-04-22 03:23 | 36.78806 | 127.61031 | 6381 ft | 310 kts | 234° |
| 2026-04-22 03:23 | 36.77505 | 127.59137 | 4736 ft | 269 kts | 227° |
| 2026-04-22 03:24 | 36.76344 | 127.57471 | 3222 ft | 242 kts | 231° |
| 2026-04-22 03:24 | 36.75380 | 127.55845 | 1856 ft | 227 kts | 234° |
| 2026-04-22 03:24 | 36.74508 | 127.54317 | 991 ft | 209 kts | 236° |
| 2026-04-22 03:24 | 36.73710 | 127.52931 | 579 ft | 184 kts | 235° |
| 2026-04-22 03:25 | 36.72992 | 127.51753 | 435 ft | 152 kts | 227° |
| 2026-04-22 03:25 | 36.72319 | 127.50853 | 285 ft | 133 kts | 241° |
| 2026-04-22 03:25 | 36.71790 | 127.49999 | 236 ft | 114 kts | 238° |
| 2026-04-22 03:25 | 36.71392 | 127.49298 | 207 ft | 68 kts | 236° |
| 2026-04-22 03:26 | 36.71293 | 127.49110 | 216 ft | 0 kts | 236° |